Time;durP1;ratioP1;P1;durP2;ratioP2;P2;SDS_P1;SDS_P2;PMS_P1;PMS_P2;Temp;Humidity;BMP_temperature;BMP_pressure;BME280_temperature;BME280_humidity;BME280_pressure;Samples;Min_cycle;Max_cycle;Signal;HPM_P1;HPM_P2
2021/03/19 00:01:36;;;;;;;9.53;4.23;;;6.60;99.90;;;;;;5127036;28;20190;-67
2021/03/19 00:04:03;;;;;;;11.93;3.83;;;6.60;99.90;;;;;;5127796;28;20190;-67
2021/03/19 00:06:29;;;;;;;7.57;3.97;;;6.60;99.90;;;;;;5125511;28;20166;-67
2021/03/19 00:08:55;;;;;;;13.23;3.97;;;6.70;99.90;;;;;;5128064;28;20575;-68
2021/03/19 00:11:22;;;;;;;7.93;4.30;;;6.80;99.90;;;;;;5128454;28;20233;-70
2021/03/19 00:13:48;;;;;;;10.90;3.87;;;6.80;99.90;;;;;;5128082;28;20632;-70
2021/03/19 00:16:13;;;;;;;13.40;3.83;;;6.80;99.90;;;;;;5125550;28;20166;-70
2021/03/19 00:18:39;;;;;;;15.67;4.00;;;6.70;99.90;;;;;;5127567;28;20171;-70
2021/03/19 00:21:05;;;;;;;10.60;4.10;;;6.70;99.90;;;;;;5127873;28;20185;-70
2021/03/19 00:23:31;;;;;;;12.57;3.80;;;6.60;99.90;;;;;;5127783;28;20687;-70
2021/03/19 00:25:57;;;;;;;12.93;3.40;;;6.50;99.90;;;;;;5125026;28;20170;-70
2021/03/19 00:28:22;;;;;;;12.63;3.70;;;6.60;99.90;;;;;;5127827;28;20167;-71
2021/03/19 00:30:48;;;;;;;9.50;3.27;;;6.50;99.90;;;;;;5127430;28;20681;-69
2021/03/19 00:33:15;;;;;;;12.83;2.87;;;6.50;99.90;;;;;;5127308;28;20233;-70
2021/03/19 00:35:41;;;;;;;11.83;2.70;;;6.50;99.90;;;;;;5125040;28;20163;-71
2021/03/19 00:38:07;;;;;;;9.67;3.33;;;6.50;99.90;;;;;;5127593;28;20163;-70
2021/03/19 00:40:34;;;;;;;11.60;3.30;;;6.50;99.90;;;;;;5127626;28;20180;-70
2021/03/19 00:43:00;;;;;;;11.33;2.93;;;6.40;99.90;;;;;;5127413;28;20182;-70
2021/03/19 00:45:27;;;;;;;5.20;2.87;;;6.40;99.90;;;;;;5124775;28;20251;-70
2021/03/19 00:47:54;;;;;;;9.83;2.97;;;6.30;99.90;;;;;;5126932;28;20167;-70
2021/03/19 00:50:27;;;;;;;6.90;2.50;;;6.30;99.90;;;;;;5127419;28;20154;-70
2021/03/19 00:52:54;;;;;;;13.93;3.10;;;6.30;99.90;;;;;;5127257;28;20760;-70
2021/03/19 00:55:19;;;;;;;10.80;3.20;;;6.30;99.90;;;;;;5124536;28;20310;-70
2021/03/19 00:57:45;;;;;;;12.97;2.77;;;6.20;99.90;;;;;;5127173;28;20174;-70
2021/03/19 01:00:13;;;;;;;15.23;3.30;;;6.20;99.90;;;;;;5127044;28;20193;-70
2021/03/19 01:02:39;;;;;;;7.63;3.43;;;6.20;99.90;;;;;;5126905;28;20192;-70
2021/03/19 01:05:12;;;;;;;9.47;2.93;;;6.20;99.90;;;;;;5125310;28;20183;-70
2021/03/19 01:07:37;;;;;;;9.13;3.23;;;6.10;99.90;;;;;;5126950;28;20234;-70
2021/03/19 01:10:10;;;;;;;14.03;2.93;;;6.10;99.90;;;;;;5125678;28;20216;-70
2021/03/19 01:12:35;;;;;;;3.73;2.57;;;6.10;99.90;;;;;;5126733;28;20685;-70
2021/03/19 01:15:01;;;;;;;9.43;2.43;;;6.00;99.90;;;;;;5125316;28;20159;-70
2021/03/19 01:17:27;;;;;;;13.10;3.33;;;5.90;99.90;;;;;;5125685;28;20280;-70
2021/03/19 01:19:52;;;;;;;11.30;2.50;;;5.90;99.90;;;;;;5126760;28;20171;-70
2021/03/19 01:22:18;;;;;;;7.37;2.43;;;5.90;99.90;;;;;;5126874;28;20178;-70
2021/03/19 01:24:44;;;;;;;13.23;2.80;;;5.90;99.90;;;;;;5127105;28;20162;-70
2021/03/19 01:27:09;;;;;;;12.57;3.20;;;5.90;99.90;;;;;;5124189;28;20169;-70
2021/03/19 01:29:36;;;;;;;9.43;3.00;;;5.90;99.90;;;;;;5126629;28;20162;-70
2021/03/19 01:32:02;;;;;;;7.60;2.83;;;5.90;99.90;;;;;;5126552;28;20208;-70
2021/03/19 01:34:28;;;;;;;11.07;2.87;;;5.80;99.90;;;;;;5126365;28;20166;-70
2021/03/19 01:36:54;;;;;;;19.73;2.60;;;5.80;99.90;;;;;;5123743;28;20226;-70
2021/03/19 01:39:19;;;;;;;5.60;2.50;;;5.80;99.90;;;;;;5126455;28;20178;-70
2021/03/19 01:41:47;;;;;;;10.10;2.60;;;5.80;99.90;;;;;;5126573;28;20166;-70
2021/03/19 01:44:30;;;;;;;11.43;2.57;;;5.70;99.90;;;;;;5126616;28;20585;-70
2021/03/19 01:47:33;;;;;;;7.43;2.40;;;5.70;99.90;;;;;;5123719;28;20196;-70
2021/03/19 01:50:37;;;;;;;6.13;2.37;;;5.60;99.90;;;;;;5124900;28;20174;-70
2021/03/19 01:53:40;;;;;;;7.83;2.90;;;5.70;99.90;;;;;;5126181;28;20170;-70
2021/03/19 01:56:43;;;;;;;10.47;3.60;;;5.70;99.90;;;;;;5123445;28;20213;-70
2021/03/19 01:59:46;;;;;;;8.80;3.70;;;5.70;99.90;;;;;;5124412;28;20197;-70
2021/03/19 02:02:50;;;;;;;5.50;2.93;;;5.60;99.90;;;;;;5126072;28;20178;-70
2021/03/19 02:05:53;;;;;;;11.07;3.67;;;5.60;99.90;;;;;;5123726;28;20230;-70
2021/03/19 02:08:56;;;;;;;18.40;4.23;;;5.60;99.90;;;;;;5126062;28;20175;-70
2021/03/19 02:11:59;;;;;;;14.40;3.60;;;5.70;99.90;;;;;;5126207;28;20162;-70
2021/03/19 02:15:02;;;;;;;9.00;3.43;;;5.70;99.90;;;;;;5126175;28;20576;-70
2021/03/19 02:18:12;;;;;;;9.10;3.40;;;5.80;99.90;;;;;;5125101;28;20166;-70
2021/03/19 02:21:15;;;;;;;6.30;3.00;;;5.80;99.90;;;;;;5110065;28;20183;-70
2021/03/19 02:24:18;;;;;;;9.53;3.23;;;5.90;99.90;;;;;;5126003;28;20214;-70
2021/03/19 02:27:21;;;;;;;8.77;3.90;;;6.00;99.90;;;;;;5127755;28;20187;-70
2021/03/19 02:30:24;;;;;;;15.43;3.60;;;5.90;99.90;;;;;;5129774;28;20178;-70
2021/03/19 02:32:50;;;;;;;12.70;3.80;;;5.90;99.90;;;;;;5129866;28;20198;-70
2021/03/19 02:35:22;;;;;;;10.07;3.73;;;5.70;99.90;;;;;;5125944;28;20702;-70
2021/03/19 02:37:48;;;;;;;8.87;3.43;;;5.70;99.90;;;;;;5129755;28;20163;-70
2021/03/19 02:40:21;;;;;;;7.33;3.63;;;5.70;99.90;;;;;;5128570;28;20550;-70
2021/03/19 02:42:47;;;;;;;9.00;3.50;;;5.60;99.90;;;;;;5128388;28;20205;-70
2021/03/19 02:45:18;;;;;;;10.03;4.00;;;5.60;99.90;;;;;;5127326;28;20169;-71
2021/03/19 02:47:44;;;;;;;9.83;4.07;;;5.50;99.90;;;;;;5129535;28;20167;-70
2021/03/19 02:50:12;;;;;;;8.33;3.80;;;5.40;99.90;;;;;;5128261;28;20238;-70
2021/03/19 02:52:40;;;;;;;13.80;4.50;;;5.40;99.90;;;;;;5129746;28;20167;-70
2021/03/19 02:55:08;;;;;;;10.20;4.27;;;5.40;99.90;;;;;;5127442;28;20170;-70
2021/03/19 02:57:34;;;;;;;8.57;4.10;;;5.30;99.90;;;;;;5128075;28;20190;-70
2021/03/19 02:59:59;;;;;;;8.77;4.60;;;5.30;99.90;;;;;;5129149;28;20170;-70
2021/03/19 03:02:25;;;;;;;10.23;4.60;;;5.20;99.90;;;;;;5129219;28;20193;-70
2021/03/19 03:04:51;;;;;;;13.93;5.03;;;5.30;99.90;;;;;;5128983;28;20195;-70
2021/03/19 03:07:27;;;;;;;10.77;4.67;;;5.20;99.90;;;;;;5126040;28;20162;-70
2021/03/19 03:09:53;;;;;;;9.80;5.20;;;5.30;99.90;;;;;;5129121;28;20169;-70
2021/03/19 03:12:20;;;;;;;11.70;5.13;;;5.30;99.90;;;;;;5129396;28;20163;-70
2021/03/19 03:14:46;;;;;;;9.17;4.97;;;5.30;99.90;;;;;;5129418;28;20246;-70
2021/03/19 03:17:12;;;;;;;11.07;5.17;;;5.30;99.90;;;;;;5126639;28;20215;-70
2021/03/19 03:19:38;;;;;;;10.20;5.67;;;5.40;99.90;;;;;;5128651;28;20171;-69
2021/03/19 03:22:05;;;;;;;11.47;5.47;;;5.50;99.90;;;;;;5129024;28;20163;-70
2021/03/19 03:24:31;;;;;;;18.13;5.67;;;5.50;99.90;;;;;;5128952;28;20221;-70
2021/03/19 03:26:57;;;;;;;11.00;5.80;;;5.50;99.90;;;;;;5126391;28;20175;-70
2021/03/19 03:29:24;;;;;;;9.33;5.60;;;5.60;99.90;;;;;;5128939;28;20222;-70
2021/03/19 03:31:51;;;;;;;9.00;5.33;;;5.60;99.90;;;;;;5128828;28;20151;-70
2021/03/19 03:34:16;;;;;;;8.47;5.50;;;5.60;99.90;;;;;;5128571;28;20170;-70
2021/03/19 03:36:42;;;;;;;9.13;5.33;;;5.70;99.90;;;;;;5126359;28;20171;-70
2021/03/19 03:39:15;;;;;;;19.80;5.77;;;5.70;99.90;;;;;;5128571;28;20178;-70
2021/03/19 03:41:42;;;;;;;13.73;6.17;;;5.60;99.90;;;;;;5128726;28;20163;-70
2021/03/19 03:44:10;;;;;;;9.47;5.80;;;5.60;99.90;;;;;;5128652;28;20656;-70
2021/03/19 03:46:36;;;;;;;9.50;5.97;;;5.70;99.90;;;;;;5126060;28;20523;-70
2021/03/19 03:49:02;;;;;;;8.23;6.10;;;5.80;99.90;;;;;;5128224;28;20187;-70
2021/03/19 03:51:28;;;;;;;15.93;6.93;;;5.60;99.90;;;;;;5126710;28;20421;-70
2021/03/19 03:53:57;;;;;;;13.37;6.67;;;5.60;99.90;;;;;;5128494;28;20167;-70
2021/03/19 03:56:24;;;;;;;11.43;6.20;;;5.50;99.90;;;;;;5125760;28;20213;-70
2021/03/19 03:58:49;;;;;;;8.80;6.50;;;5.40;99.90;;;;;;5128255;28;20170;-70
2021/03/19 04:01:15;;;;;;;12.53;6.33;;;5.20;99.90;;;;;;5128477;28;20249;-70
2021/03/19 04:03:40;;;;;;;10.07;6.00;;;5.20;99.90;;;;;;5128154;28;20215;-70
2021/03/19 04:06:07;;;;;;;7.90;6.47;;;5.10;99.90;;;;;;5125662;28;20155;-70
2021/03/19 04:08:33;;;;;;;10.10;6.77;;;5.00;99.90;;;;;;5128147;28;20241;-70
2021/03/19 04:11:02;;;;;;;9.20;6.73;;;5.00;99.90;;;;;;5128033;28;20171;-70
2021/03/19 04:13:29;;;;;;;10.17;6.90;;;5.00;99.90;;;;;;5128280;28;20243;-70
2021/03/19 04:15:56;;;;;;;11.17;7.03;;;5.10;99.90;;;;;;5125290;28;20182;-69
2021/03/19 04:18:22;;;;;;;10.63;7.10;;;4.90;99.90;;;;;;5127531;28;20179;-69
2021/03/19 04:20:51;;;;;;;8.10;6.60;;;4.90;99.90;;;;;;5127997;28;20163;-70
2021/03/19 04:23:17;;;;;;;12.87;7.70;;;4.90;99.90;;;;;;5127914;28;20203;-70
2021/03/19 04:25:43;;;;;;;13.80;7.77;;;4.90;99.90;;;;;;5125344;28;20232;-69
2021/03/19 04:28:17;;;;;;;12.50;7.63;;;4.90;99.90;;;;;;5127724;28;20158;-69
2021/03/19 04:30:44;;;;;;;11.50;7.97;;;4.90;99.90;;;;;;5127847;28;20180;-70
2021/03/19 04:33:14;;;;;;;8.10;7.23;;;4.90;99.90;;;;;;5127454;28;20243;-70
2021/03/19 04:35:40;;;;;;;12.80;7.90;;;4.90;99.90;;;;;;5125140;28;20207;-70
2021/03/19 04:38:14;;;;;;;9.77;7.60;;;4.80;99.90;;;;;;5127250;28;20307;-70
2021/03/19 04:40:42;;;;;;;11.70;8.17;;;4.80;99.90;;;;;;5127636;28;20328;-70
2021/03/19 04:43:09;;;;;;;13.03;8.17;;;4.70;99.90;;;;;;5127456;28;20519;-70
2021/03/19 04:45:41;;;;;;;12.60;9.63;;;4.80;99.90;;;;;;5124437;28;20403;-70
2021/03/19 04:48:07;;;;;;;15.53;9.47;;;4.90;99.90;;;;;;5126568;28;20195;-70
2021/03/19 04:50:33;;;;;;;10.73;8.60;;;4.80;99.90;;;;;;5127489;28;20178;-70
2021/03/19 04:52:59;;;;;;;12.77;9.98;;;4.70;99.90;;;;;;5127108;28;20406;-70
2021/03/19 04:55:25;;;;;;;15.87;9.63;;;4.80;99.90;;;;;;5124672;28;20438;-70
2021/03/19 04:57:51;;;;;;;10.60;9.50;;;4.50;99.90;;;;;;5127159;28;20184;-70
2021/03/19 05:00:18;;;;;;;12.20;9.17;;;4.50;99.90;;;;;;5127055;28;20171;-70
2021/03/19 05:02:46;;;;;;;14.00;9.83;;;4.50;99.90;;;;;;5126923;28;20230;-70
2021/03/19 05:05:26;;;;;;;10.47;9.40;;;4.50;99.90;;;;;;5124403;28;20159;-70
2021/03/19 05:07:52;;;;;;;12.80;9.93;;;4.30;99.90;;;;;;5127120;28;20180;-70
2021/03/19 05:10:24;;;;;;;16.40;11.77;;;4.40;99.90;;;;;;5124718;28;20490;-70
2021/03/19 05:12:50;;;;;;;15.83;11.10;;;4.60;99.90;;;;;;5126945;28;20170;-70
2021/03/19 05:15:17;;;;;;;21.60;11.67;;;4.50;99.90;;;;;;5124369;28;20572;-70
2021/03/19 05:17:43;;;;;;;16.38;12.65;;;4.50;99.90;;;;;;5126300;28;20403;-70
2021/03/19 05:20:11;;;;;;;21.03;11.47;;;4.70;99.90;;;;;;5126729;28;20178;-70
2021/03/19 05:22:38;;;;;;;18.43;12.33;;;4.60;99.90;;;;;;5126821;28;20166;-70
2021/03/19 05:25:08;;;;;;;18.10;11.23;;;4.50;99.90;;;;;;5124788;28;20163;-69
2021/03/19 05:27:33;;;;;;;15.53;11.67;;;4.50;99.90;;;;;;5126549;28;20147;-70
2021/03/19 05:29:59;;;;;;;18.57;12.17;;;4.40;99.90;;;;;;5126326;28;20171;-70
2021/03/19 05:32:26;;;;;;;16.23;12.03;;;4.40;99.90;;;;;;5125497;28;20151;-70
2021/03/19 05:34:51;;;;;;;16.40;11.93;;;4.30;99.90;;;;;;5125755;28;20166;-70
2021/03/19 05:37:17;;;;;;;19.73;12.73;;;4.30;99.90;;;;;;5124462;28;20219;-70
2021/03/19 05:39:43;;;;;;;15.83;13.07;;;4.30;99.90;;;;;;5126579;28;20193;-70
2021/03/19 05:42:16;;;;;;;21.13;12.90;;;4.30;99.90;;;;;;5126386;28;20181;-70
2021/03/19 05:44:44;;;;;;;18.60;13.27;;;4.30;99.90;;;;;;5126368;28;20190;-70
2021/03/19 05:47:10;;;;;;;25.77;13.13;;;4.30;99.90;;;;;;5123726;28;20165;-70
2021/03/19 05:49:36;;;;;;;16.10;13.00;;;4.20;99.90;;;;;;5126003;28;20537;-69
2021/03/19 05:52:18;;;;;;;18.10;12.93;;;4.30;99.90;;;;;;5126320;28;20151;-69
2021/03/19 05:54:45;;;;;;;15.90;12.73;;;4.20;99.90;;;;;;5126724;28;20161;-69
2021/03/19 05:57:28;;;;;;;18.33;13.90;;;4.20;99.90;;;;;;5123560;28;20237;-69
2021/03/19 05:59:57;;;;;;;25.47;12.87;;;4.20;99.90;;;;;;5124094;28;20257;-69
2021/03/19 06:02:33;;;;;;;22.80;14.20;;;4.10;99.90;;;;;;5126453;28;20170;-70
2021/03/19 06:05:11;;;;;;;15.30;13.27;;;4.10;99.90;;;;;;5124876;28;20170;-69
2021/03/19 06:07:38;;;;;;;16.37;12.80;;;4.10;99.90;;;;;;5126519;28;20241;-69
2021/03/19 06:10:19;;;;;;;16.77;13.20;;;4.10;99.90;;;;;;5125822;28;20808;-69
2021/03/19 06:12:50;;;;;;;22.43;14.30;;;4.10;99.90;;;;;;5126259;28;20583;-70
2021/03/19 06:15:27;;;;;;;20.77;13.47;;;4.10;99.90;;;;;;5122411;28;20253;-69
2021/03/19 06:17:54;;;;;;;18.25;13.57;;;4.10;99.90;;;;;;5125697;28;20411;-69
2021/03/19 06:20:22;;;;;;;20.73;13.43;;;4.10;99.90;;;;;;5125896;28;20171;-69
2021/03/19 06:22:53;;;;;;;18.37;12.83;;;4.20;99.90;;;;;;5126045;28;20201;-70
2021/03/19 06:25:19;;;;;;;25.60;13.17;;;4.20;99.90;;;;;;5123314;28;20548;-70
2021/03/19 06:27:54;;;;;;;19.47;12.70;;;4.30;99.90;;;;;;5126273;28;20178;-70
2021/03/19 06:30:26;;;;;;;20.37;11.67;;;4.20;99.90;;;;;;5126041;28;20167;-70
2021/03/19 06:33:10;;;;;;;21.00;12.93;;;4.30;99.90;;;;;;5125658;28;20170;-70
2021/03/19 06:35:36;;;;;;;18.05;13.48;;;4.30;99.90;;;;;;5123253;28;20485;-70
2021/03/19 06:38:27;;;;;;;16.50;11.53;;;4.40;99.90;;;;;;5125811;28;20252;-70
2021/03/19 06:40:53;;;;;;;17.17;12.43;;;4.40;99.90;;;;;;5125771;28;20166;-70
2021/03/19 06:43:29;;;;;;;23.67;12.63;;;4.50;99.90;;;;;;5125917;28;20194;-70
2021/03/19 06:46:09;;;;;;;15.83;12.07;;;4.50;99.90;;;;;;5123220;28;20170;-70
2021/03/19 06:49:00;;;;;;;14.67;11.57;;;4.50;99.90;;;;;;5125334;28;20163;-69
2021/03/19 06:51:26;;;;;;;18.30;10.63;;;4.50;99.90;;;;;;5125799;28;20208;-70
2021/03/19 06:54:21;;;;;;;15.33;10.60;;;4.60;99.90;;;;;;5125968;28;20167;-69
2021/03/19 06:57:14;;;;;;;17.23;10.83;;;4.70;99.90;;;;;;5116738;28;20218;-70
2021/03/19 06:59:52;;;;;;;13.87;10.77;;;4.80;99.90;;;;;;5123141;28;20197;-69
2021/03/19 07:02:45;;;;;;;15.77;11.40;;;4.70;99.90;;;;;;5124293;28;20159;-70
2021/03/19 07:05:37;;;;;;;14.87;10.33;;;4.70;99.90;;;;;;5122913;28;20814;-69
2021/03/19 07:08:39;;;;;;;20.30;10.47;;;4.80;99.90;;;;;;5125547;28;20158;-70
2021/03/19 07:11:39;;;;;;;11.90;9.00;;;4.90;99.90;;;;;;5127387;28;20158;-70
2021/03/19 07:14:08;;;;;;;13.73;9.90;;;5.00;99.90;;;;;;5129135;28;20196;-70
2021/03/19 07:16:36;;;;;;;18.27;9.67;;;5.00;99.90;;;;;;5126665;28;20177;-70
2021/03/19 07:19:09;;;;;;;12.10;8.70;;;5.10;99.90;;;;;;5127377;28;20186;-70
2021/03/19 07:21:46;;;;;;;13.60;8.57;;;5.10;99.90;;;;;;5129317;28;20163;-70
2021/03/19 07:24:42;;;;;;;14.43;8.70;;;5.10;99.90;;;;;;5129110;28;20194;-70
2021/03/19 07:27:26;;;;;;;8.73;7.73;;;5.20;99.90;;;;;;5126275;28;20163;-70
2021/03/19 07:29:58;;;;;;;13.63;7.40;;;5.20;99.90;;;;;;5128783;28;20173;-69
2021/03/19 07:32:57;;;;;;;13.77;7.47;;;5.40;99.90;;;;;;5128964;28;20173;-70
2021/03/19 07:35:45;;;;;;;9.10;6.63;;;5.40;99.90;;;;;;5126377;28;20300;-70
2021/03/19 07:38:48;;;;;;;7.77;5.77;;;5.40;99.90;;;;;;5127586;28;20179;-70
2021/03/19 07:41:28;;;;;;;7.67;6.23;;;5.50;99.90;;;;;;5129078;28;20632;-70
2021/03/19 07:44:01;;;;;;;8.40;5.63;;;5.40;99.90;;;;;;5127289;28;20204;-69
2021/03/19 07:47:05;;;;;;;9.70;7.07;;;5.40;99.90;;;;;;5126119;28;20173;-70
2021/03/19 07:49:54;;;;;;;8.47;5.17;;;5.50;99.90;;;;;;5128545;28;20174;-70
2021/03/19 07:52:31;;;;;;;6.13;4.90;;;5.60;99.90;;;;;;5128745;28;20576;-70
2021/03/19 07:55:28;;;;;;;9.97;4.63;;;5.80;99.90;;;;;;5127389;28;20242;-70
2021/03/19 07:58:11;;;;;;;6.80;4.80;;;5.80;99.90;;;;;;5128474;28;20166;-70
2021/03/19 08:00:42;;;;;;;6.67;5.27;;;5.80;99.90;;;;;;5128137;28;20716;-70
2021/03/19 08:03:31;;;;;;;11.37;5.37;;;5.90;99.90;;;;;;5127934;28;20225;-69
2021/03/19 08:06:01;;;;;;;10.13;4.83;;;6.10;99.90;;;;;;5124696;28;20159;-70
2021/03/19 08:08:42;;;;;;;8.47;5.40;;;6.30;99.90;;;;;;5128019;28;20198;-69
2021/03/19 08:11:14;;;;;;;9.63;4.73;;;6.30;99.90;;;;;;5128290;28;20465;-70
2021/03/19 08:13:43;;;;;;;7.70;5.30;;;6.40;99.90;;;;;;5126873;28;20548;-70
2021/03/19 08:16:14;;;;;;;7.07;5.20;;;6.40;99.90;;;;;;5124132;28;20170;-70
2021/03/19 08:19:08;;;;;;;7.00;5.20;;;6.40;99.90;;;;;;5127860;28;20175;-70
2021/03/19 08:21:47;;;;;;;7.70;5.40;;;6.40;99.90;;;;;;5127529;28;20162;-70
2021/03/19 08:24:54;;;;;;;7.90;5.07;;;6.40;99.90;;;;;;5128220;28;20608;-70
2021/03/19 08:27:42;;;;;;;6.80;4.87;;;6.40;99.90;;;;;;5126179;28;20150;-70
2021/03/19 08:30:23;;;;;;;11.73;5.27;;;6.50;99.90;;;;;;5127346;28;20426;-70
2021/03/19 08:32:55;;;;;;;6.67;4.97;;;6.30;99.90;;;;;;5127507;28;20185;-71
2021/03/19 08:35:23;;;;;;;4.60;4.20;;;6.60;99.90;;;;;;5125334;28;20159;-71
2021/03/19 08:38:15;;;;;;;5.43;4.47;;;6.60;99.90;;;;;;5127485;28;20182;-69
2021/03/19 08:40:53;;;;;;;7.20;4.77;;;6.60;99.90;;;;;;5127521;28;20319;-70
2021/03/19 08:43:34;;;;;;;7.33;5.40;;;6.60;99.90;;;;;;5127754;28;20609;-70
2021/03/19 08:46:44;;;;;;;8.97;4.13;;;6.70;99.90;;;;;;5124790;28;20163;-70
2021/03/19 08:49:35;;;;;;;10.60;4.73;;;6.70;99.90;;;;;;5063638;28;20181;-70
2021/03/19 08:52:24;;;;;;;3.80;3.23;;;6.80;99.90;;;;;;5063793;28;20203;-70
2021/03/19 08:55:12;;;;;;;12.83;3.20;;;6.90;99.90;;;;;;5064168;28;20199;-70
2021/03/19 08:57:40;;;;;;;4.83;3.53;;;7.00;99.90;;;;;;5064115;28;20252;-70
2021/03/19 09:00:12;;;;;;;4.97;3.57;;;7.10;99.90;;;;;;5063726;28;20189;-70
2021/03/19 09:02:48;;;;;;;6.57;3.47;;;7.20;99.90;;;;;;5063854;28;20207;-70
2021/03/19 09:05:25;;;;;;;5.73;3.00;;;7.20;99.90;;;;;;5061082;28;20180;-70
2021/03/19 09:08:12;;;;;;;6.73;2.70;;;7.30;99.90;;;;;;5063864;28;20172;-69
2021/03/19 09:10:38;;;;;;;5.40;2.67;;;7.40;99.90;;;;;;5063439;28;20227;-70
2021/03/19 09:13:08;;;;;;;3.70;2.40;;;7.50;99.90;;;;;;5063178;28;20185;-70
2021/03/19 09:15:36;;;;;;;4.47;2.60;;;7.60;99.90;;;;;;5061043;28;20160;-70
2021/03/19 09:18:24;;;;;;;2.87;2.53;;;7.70;99.90;;;;;;5063152;28;20179;-70
2021/03/19 09:21:11;;;;;;;5.80;2.40;;;7.80;99.90;;;;;;5062606;28;20196;-70
2021/03/19 09:24:04;;;;;;;2.90;2.17;;;7.80;99.90;;;;;;5063506;28;20256;-70
2021/03/19 09:26:51;;;;;;;2.53;2.03;;;7.90;99.90;;;;;;5123299;28;20171;-70
2021/03/19 09:29:19;;;;;;;4.50;2.30;;;7.90;99.90;;;;;;5126536;28;20253;-70
2021/03/19 09:32:24;;;;;;;3.10;2.10;;;8.10;99.90;;;;;;5125261;28;20163;-70
2021/03/19 09:34:49;;;;;;;4.17;2.10;;;8.20;99.90;;;;;;5100651;28;20222;-70
2021/03/19 09:37:54;;;;;;;5.05;2.30;;;8.40;99.90;;;;;;5122368;28;20407;-71
2021/03/19 09:40:52;;;;;;;6.47;1.77;;;8.50;99.90;;;;;;5125686;27;20668;-71
2021/03/19 09:43:43;;;;;;;2.97;2.33;;;8.70;99.90;;;;;;5126378;28;20190;-71
2021/03/19 09:46:22;;;;;;;5.63;2.37;;;8.70;99.90;;;;;;5123351;28;20166;-71
2021/03/19 09:49:02;;;;;;;4.28;2.50;;;8.80;99.90;;;;;;5124881;28;20406;-71
2021/03/19 09:51:40;;;;;;;2.67;2.33;;;9.10;99.90;;;;;;5125671;28;20172;-71
2021/03/19 09:54:39;;;;;;;3.63;2.33;;;9.20;99.90;;;;;;5125989;28;20193;-72
2021/03/19 09:57:28;;;;;;;3.03;1.90;;;9.30;99.90;;;;;;5089078;28;20530;-69
2021/03/19 10:00:13;;;;;;;4.20;2.63;;;9.30;99.90;;;;;;5125628;28;20170;-69
2021/03/19 10:02:41;;;;;;;3.30;2.23;;;9.40;99.90;;;;;;5126126;28;20187;-69
2021/03/19 10:05:25;;;;;;;2.97;2.13;;;9.50;99.90;;;;;;5122262;28;20229;-70
2021/03/19 10:07:57;;;;;;;4.20;2.03;;;9.60;99.90;;;;;;5125327;28;20677;-69
2021/03/19 10:10:39;;;;;;;3.03;2.30;;;9.70;99.90;;;;;;5125231;28;20170;-71
2021/03/19 10:13:20;;;;;;;4.40;2.23;;;9.80;99.90;;;;;;5124522;28;20162;-70
2021/03/19 10:15:48;;;;;;;4.93;2.00;;;9.90;99.90;;;;;;5122666;28;20165;-70
2021/03/19 10:18:45;;;;;;;3.07;2.10;;;10.00;99.90;;;;;;5125802;28;20171;-70
2021/03/19 10:21:18;;;;;;;2.17;1.87;;;10.10;99.90;;;;;;5123834;28;20174;-70
2021/03/19 10:23:56;;;;;;;4.30;2.33;;;10.10;99.90;;;;;;5125917;28;20191;-71
2021/03/19 10:26:49;;;;;;;3.40;2.20;;;10.20;99.90;;;;;;5122755;28;20170;-70
2021/03/19 10:29:34;;;;;;;3.10;2.20;;;10.20;99.90;;;;;;5125884;28;20181;-70
2021/03/19 10:32:08;;;;;;;2.87;2.53;;;10.20;99.90;;;;;;5125160;28;20154;-71
2021/03/19 10:34:37;;;;;;;5.70;2.30;;;10.20;99.90;;;;;;5124693;28;20258;-71
2021/03/19 10:37:13;;;;;;;7.30;3.00;;;10.40;99.90;;;;;;5120648;28;20202;-71
2021/03/19 10:39:38;;;;;;;5.10;2.60;;;10.50;99.90;;;;;;5124892;28;20190;-70
2021/03/19 10:42:30;;;;;;;2.93;2.33;;;10.60;99.90;;;;;;5124666;28;20201;-71
2021/03/19 10:45:18;;;;;;;3.37;2.27;;;10.60;99.90;;;;;;5124611;28;20182;-71
2021/03/19 10:48:02;;;;;;;3.67;2.70;;;10.70;99.90;;;;;;5128363;28;20222;-71
2021/03/19 10:50:35;;;;;;;2.93;2.60;;;10.80;99.90;;;;;;5129530;28;20163;-71
2021/03/19 10:53:11;;;;;;;3.20;2.23;;;10.70;99.90;;;;;;5129381;28;20155;-71
2021/03/19 10:55:38;;;;;;;4.78;2.53;;;10.80;99.90;;;;;;5126722;28;20399;-71
2021/03/19 10:58:19;;;;;;;6.10;2.50;;;11.00;99.90;;;;;;5129453;28;20174;-71
2021/03/19 11:00:47;;;;;;;5.90;2.70;;;11.20;99.90;;;;;;5129200;28;20194;-71
2021/03/19 11:03:31;;;;;;;2.70;2.42;;;11.30;99.90;;;;;;5129223;28;20191;-71
2021/03/19 11:06:09;;;;;;;5.27;2.40;;;11.40;99.90;;;;;;5126346;28;20173;-71
2021/03/19 11:08:38;;;;;;;3.75;2.50;;;11.40;99.90;;;;;;5129054;28;20155;-71
2021/03/19 11:11:04;;;;;;;4.15;2.58;;;11.30;99.90;;;;;;5129017;28;20159;-71
2021/03/19 11:13:32;;;;;;;3.17;2.20;;;11.30;99.90;;;;;;5128096;28;20163;-71
2021/03/19 11:16:02;;;;;;;2.78;2.50;;;11.50;99.90;;;;;;5125361;28;20162;-72
2021/03/19 11:18:38;;;;;;;2.53;2.33;;;11.50;99.90;;;;;;5127599;28;20170;-70
2021/03/19 11:21:03;;;;;;;3.20;2.40;;;11.50;99.90;;;;;;5128926;28;20162;-71
2021/03/19 11:23:45;;;;;;;5.20;2.63;;;11.70;99.90;;;;;;5127804;28;20209;-71
2021/03/19 11:26:22;;;;;;;3.33;2.40;;;11.60;99.90;;;;;;5126327;28;20166;-71
2021/03/19 11:28:48;;;;;;;2.90;2.27;;;11.40;99.90;;;;;;5129081;28;20208;-71
2021/03/19 11:31:29;;;;;;;6.38;2.53;;;11.50;99.90;;;;;;5128880;28;20162;-71
2021/03/19 11:34:03;;;;;;;2.97;2.40;;;11.70;99.90;;;;;;5128507;28;20235;-70
2021/03/19 11:36:53;;;;;;;2.83;2.53;;;11.50;99.90;;;;;;5126441;28;20162;-71
2021/03/19 11:39:32;;;;;;;4.72;2.70;;;11.70;99.90;;;;;;5126611;28;20419;-71
2021/03/19 11:41:58;;;;;;;3.35;2.63;;;12.10;99.90;;;;;;5127975;28;20166;-71
2021/03/19 11:44:24;;;;;;;4.63;2.72;;;12.10;99.90;;;;;;5128467;28;20186;-71
2021/03/19 11:46:49;;;;;;;4.47;2.55;;;12.20;99.90;;;;;;5126111;28;20154;-71
2021/03/19 11:49:16;;;;;;;3.15;2.25;;;12.20;99.90;;;;;;5128194;28;20400;-70
2021/03/19 11:51:41;;;;;;;7.65;2.45;;;12.60;99.90;;;;;;5128512;28;20159;-71
2021/03/19 11:54:09;;;;;;;3.13;2.13;;;12.80;99.90;;;;;;5128011;28;20174;-71
2021/03/19 11:56:36;;;;;;;2.55;2.20;;;12.90;99.90;;;;;;5123252;28;20221;-71
2021/03/19 11:59:03;;;;;;;2.75;2.22;;;12.80;99.90;;;;;;5127991;28;20192;-70
2021/03/19 12:01:31;;;;;;;3.72;2.53;;;12.60;99.90;;;;;;5126819;28;20506;-71
2021/03/19 12:03:58;;;;;;;3.60;2.75;;;12.60;99.90;;;;;;5127850;28;20194;-71
2021/03/19 12:06:29;;;;;;;3.17;2.30;;;12.30;99.90;;;;;;5125977;28;20159;-71
2021/03/19 12:08:56;;;;;;;4.18;2.65;;;12.40;99.90;;;;;;5128047;28;20170;-71
2021/03/19 12:11:43;;;;;;;3.95;2.40;;;12.60;99.90;;;;;;5125567;28;20170;-71
2021/03/19 12:14:25;;;;;;;2.80;2.33;;;12.40;99.90;;;;;;5127849;28;20258;-71
2021/03/19 12:16:51;;;;;;;2.83;2.50;;;12.30;99.90;;;;;;5125264;28;20249;-71
2021/03/19 12:19:18;;;;;;;2.88;2.20;;;12.50;99.90;;;;;;5127427;28;20170;-71
2021/03/19 12:21:45;;;;;;;2.95;2.47;;;12.90;99.90;;;;;;5127934;28;20185;-71
2021/03/19 12:24:11;;;;;;;4.30;2.88;;;13.30;99.90;;;;;;5127654;28;20190;-71
2021/03/19 12:26:36;;;;;;;9.15;2.72;;;13.20;99.90;;;;;;5124838;28;20154;-71
2021/03/19 12:29:03;;;;;;;2.92;2.13;;;13.40;99.90;;;;;;5127462;28;20651;-71
2021/03/19 12:31:29;;;;;;;3.60;2.40;;;13.70;99.90;;;;;;5127443;28;20177;-71
2021/03/19 12:33:55;;;;;;;5.28;3.03;;;13.70;99.90;;;;;;5125887;28;20178;-71
2021/03/19 12:36:21;;;;;;;3.65;2.50;;;13.40;99.90;;;;;;5125079;28;20202;-71
2021/03/19 12:38:47;;;;;;;3.08;2.15;;;13.60;99.90;;;;;;5127662;28;20155;-71
2021/03/19 12:41:13;;;;;;;3.47;2.25;;;14.00;99.90;;;;;;5127307;28;20159;-71
2021/03/19 12:43:42;;;;;;;5.78;2.30;;;13.90;99.90;;;;;;5126374;28;20236;-71
2021/03/19 12:46:08;;;;;;;11.80;2.90;;;14.00;99.90;;;;;;5124530;28;20643;-71
2021/03/19 12:48:34;;;;;;;3.00;2.30;;;14.20;99.90;;;;;;5126879;28;20189;-71
2021/03/19 12:50:59;;;;;;;4.85;2.60;;;14.50;99.90;;;;;;5127023;28;20162;-71
2021/03/19 12:53:25;;;;;;;2.20;2.00;;;14.60;99.90;;;;;;5127178;28;20632;-71
2021/03/19 12:55:52;;;;;;;2.50;2.30;;;14.90;99.90;;;;;;5124020;28;20221;-71
2021/03/19 12:58:20;;;;;;;2.72;2.50;;;14.90;99.90;;;;;;5127019;28;20564;-71
2021/03/19 13:00:45;;;;;;;2.70;2.42;;;15.20;99.90;;;;;;5127221;28;20186;-72
2021/03/19 13:03:11;;;;;;;8.48;2.78;;;15.40;99.90;;;;;;5126596;28;20194;-71
2021/03/19 13:05:37;;;;;;;3.40;2.30;;;15.60;99.90;;;;;;5124556;28;20174;-71
2021/03/19 13:08:04;;;;;;;2.70;2.00;;;15.70;99.90;;;;;;5126544;28;20204;-72
2021/03/19 13:10:33;;;;;;;3.65;2.03;;;15.30;99.90;;;;;;5126440;28;20163;-72
2021/03/19 13:12:58;;;;;;;4.15;2.28;;;15.10;99.90;;;;;;5125276;28;20635;-71
2021/03/19 13:15:27;;;;;;;4.05;2.05;;;14.90;99.90;;;;;;5124407;28;20234;-71
2021/03/19 13:17:53;;;;;;;3.58;2.53;;;14.50;99.90;;;;;;5126694;28;20159;-72
2021/03/19 13:20:21;;;;;;;6.80;2.38;;;14.80;99.90;;;;;;5126449;28;20189;-72
2021/03/19 13:22:47;;;;;;;2.38;2.17;;;15.10;99.90;;;;;;5126584;28;20219;-72
2021/03/19 13:25:16;;;;;;;3.55;2.10;;;15.00;99.90;;;;;;5124031;28;20190;-72